KFXY/FXY METAR and TAF weather

Enter ICAO airport designator
Station Type Date Time Source
KFXY METAR 2020/07/10 21:15 UTC NOAA

KFXY 102115Z AUTO 28005KT 10SM CLR 28/18 A3002 RMK AO2


Station Type Date Time Source
KFXY Decoded METAR 2020/07/10 21:15 UTC NOAA

Station name not available
Jul 10, 2020 - 05:15 PM EDT / 2020.07.10 2115 UTC
Wind: from the W (280 degrees) at 6 MPH (5 KT):0
Visibility: 10 mile(s):0
Sky conditions: clear
Temperature: 82 F (28 C)
Dew Point: 64 F (18 C)
Relative Humidity: 54%
Pressure (altimeter): 30.02 in. Hg (1016 hPa)
ob: KFXY 102115Z AUTO 28005KT 10SM CLR 28/18 A3002 RMK AO2
cycle: 21

Station Type Date Time Source
KFXY TAF UTC NOAA

Error!

Example: see airport list